sensor_id;sensor_type;location;lat;lon;timestamp;P1;durP1;ratioP1;P2;durP2;ratioP2
25780;SDS011;13626;48.128;11.628;2023-12-14T00:00:28;1.95;;;0.80;;
25780;SDS011;13626;48.128;11.628;2023-12-14T00:03:06;0.93;;;0.80;;
25780;SDS011;13626;48.128;11.628;2023-12-14T00:05:41;0.80;;;0.80;;
25780;SDS011;13626;48.128;11.628;2023-12-14T00:08:12;0.90;;;0.80;;
25780;SDS011;13626;48.128;11.628;2023-12-14T00:10:42;1.02;;;0.82;;
25780;SDS011;13626;48.128;11.628;2023-12-14T00:13:15;0.90;;;0.90;;
25780;SDS011;13626;48.128;11.628;2023-12-14T00:15:49;0.80;;;0.80;;
25780;SDS011;13626;48.128;11.628;2023-12-14T00:18:23;2.38;;;0.70;;
25780;SDS011;13626;48.128;11.628;2023-12-14T00:20:53;0.82;;;0.82;;
25780;SDS011;13626;48.128;11.628;2023-12-14T00:23:38;1.63;;;1.00;;
25780;SDS011;13626;48.128;11.628;2023-12-14T00:26:11;1.10;;;0.90;;
25780;SDS011;13626;48.128;11.628;2023-12-14T00:28:51;2.50;;;1.10;;
25780;SDS011;13626;48.128;11.628;2023-12-14T00:31:28;2.10;;;1.00;;
25780;SDS011;13626;48.128;11.628;2023-12-14T00:34:15;3.22;;;0.88;;
25780;SDS011;13626;48.128;11.628;2023-12-14T00:36:45;1.00;;;0.90;;
25780;SDS011;13626;48.128;11.628;2023-12-14T00:39:20;1.42;;;0.90;;
25780;SDS011;13626;48.128;11.628;2023-12-14T00:41:50;1.33;;;0.90;;
25780;SDS011;13626;48.128;11.628;2023-12-14T00:44:33;1.17;;;0.90;;
25780;SDS011;13626;48.128;11.628;2023-12-14T00:47:07;1.20;;;0.98;;
25780;SDS011;13626;48.128;11.628;2023-12-14T00:49:41;0.98;;;0.80;;
25780;SDS011;13626;48.128;11.628;2023-12-14T00:52:16;1.17;;;0.80;;
25780;SDS011;13626;48.128;11.628;2023-12-14T00:54:47;1.38;;;1.00;;
25780;SDS011;13626;48.128;11.628;2023-12-14T00:57:27;0.90;;;0.80;;
25780;SDS011;13626;48.128;11.628;2023-12-14T00:59:59;0.80;;;0.73;;
25780;SDS011;13626;48.128;11.628;2023-12-14T01:02:29;1.17;;;0.90;;
25780;SDS011;13626;48.128;11.628;2023-12-14T01:05:06;0.80;;;0.80;;
25780;SDS011;13626;48.128;11.628;2023-12-14T01:07:37;0.90;;;0.90;;
25780;SDS011;13626;48.128;11.628;2023-12-14T01:10:08;0.93;;;0.85;;
25780;SDS011;13626;48.128;11.628;2023-12-14T01:12:40;1.80;;;0.93;;
25780;SDS011;13626;48.128;11.628;2023-12-14T01:15:13;1.10;;;1.00;;
25780;SDS011;13626;48.128;11.628;2023-12-14T01:17:46;0.90;;;0.90;;
25780;SDS011;13626;48.128;11.628;2023-12-14T01:20:16;0.73;;;0.73;;
25780;SDS011;13626;48.128;11.628;2023-12-14T01:22:49;1.60;;;0.90;;
25780;SDS011;13626;48.128;11.628;2023-12-14T01:25:31;1.30;;;0.93;;
25780;SDS011;13626;48.128;11.628;2023-12-14T01:28:09;0.77;;;0.77;;
25780;SDS011;13626;48.128;11.628;2023-12-14T01:30:46;1.75;;;1.42;;
25780;SDS011;13626;48.128;11.628;2023-12-14T01:33:24;1.20;;;1.10;;
25780;SDS011;13626;48.128;11.628;2023-12-14T01:35:58;1.58;;;0.80;;
25780;SDS011;13626;48.128;11.628;2023-12-14T01:38:31;1.02;;;0.80;;
25780;SDS011;13626;48.128;11.628;2023-12-14T01:41:04;1.52;;;0.93;;
25780;SDS011;13626;48.128;11.628;2023-12-14T01:43:42;1.33;;;0.90;;
25780;SDS011;13626;48.128;11.628;2023-12-14T01:46:13;1.48;;;0.82;;
25780;SDS011;13626;48.128;11.628;2023-12-14T01:48:52;0.88;;;0.63;;
25780;SDS011;13626;48.128;11.628;2023-12-14T01:51:35;0.70;;;0.70;;
25780;SDS011;13626;48.128;11.628;2023-12-14T01:54:08;2.78;;;0.90;;
25780;SDS011;13626;48.128;11.628;2023-12-14T01:56:45;1.05;;;0.70;;
25780;SDS011;13626;48.128;11.628;2023-12-14T01:59:21;0.80;;;0.70;;
25780;SDS011;13626;48.128;11.628;2023-12-14T02:01:59;2.42;;;0.90;;
25780;SDS011;13626;48.128;11.628;2023-12-14T02:04:35;0.65;;;0.60;;
25780;SDS011;13626;48.128;11.628;2023-12-14T02:07:06;0.90;;;0.70;;
25780;SDS011;13626;48.128;11.628;2023-12-14T02:09:43;1.20;;;0.77;;
25780;SDS011;13626;48.128;11.628;2023-12-14T02:12:25;0.50;;;0.40;;
25780;SDS011;13626;48.128;11.628;2023-12-14T02:15:07;1.90;;;0.57;;
25780;SDS011;13626;48.128;11.628;2023-12-14T02:17:45;0.35;;;0.32;;
25780;SDS011;13626;48.128;11.628;2023-12-14T02:20:18;1.45;;;0.80;;
25780;SDS011;13626;48.128;11.628;2023-12-14T02:22:58;1.35;;;0.43;;
25780;SDS011;13626;48.128;11.628;2023-12-14T02:25:30;0.97;;;0.60;;
25780;SDS011;13626;48.128;11.628;2023-12-14T02:28:10;0.55;;;0.55;;
25780;SDS011;13626;48.128;11.628;2023-12-14T02:30:52;2.13;;;0.63;;
25780;SDS011;13626;48.128;11.628;2023-12-14T02:33:33;1.85;;;0.60;;
25780;SDS011;13626;48.128;11.628;2023-12-14T02:36:17;0.50;;;0.50;;
25780;SDS011;13626;48.128;11.628;2023-12-14T02:38:52;1.10;;;1.00;;
25780;SDS011;13626;48.128;11.628;2023-12-14T02:41:33;0.63;;;0.63;;
25780;SDS011;13626;48.128;11.628;2023-12-14T02:44:11;1.10;;;0.80;;
25780;SDS011;13626;48.128;11.628;2023-12-14T02:47:07;0.70;;;0.70;;
25780;SDS011;13626;48.128;11.628;2023-12-14T02:49:46;1.33;;;0.75;;
25780;SDS011;13626;48.128;11.628;2023-12-14T02:52:37;1.92;;;1.15;;
25780;SDS011;13626;48.128;11.628;2023-12-14T02:55:15;1.17;;;1.05;;
25780;SDS011;13626;48.128;11.628;2023-12-14T02:57:54;1.27;;;1.17;;
25780;SDS011;13626;48.128;11.628;2023-12-14T03:00:35;1.20;;;1.08;;
25780;SDS011;13626;48.128;11.628;2023-12-14T03:03:06;1.20;;;1.10;;
25780;SDS011;13626;48.128;11.628;2023-12-14T03:05:38;1.30;;;1.20;;
25780;SDS011;13626;48.128;11.628;2023-12-14T03:08:21;1.50;;;1.40;;
25780;SDS011;13626;48.128;11.628;2023-12-14T03:10:56;1.20;;;1.10;;
25780;SDS011;13626;48.128;11.628;2023-12-14T03:13:40;2.25;;;1.38;;
25780;SDS011;13626;48.128;11.628;2023-12-14T03:16:10;1.70;;;1.60;;
25780;SDS011;13626;48.128;11.628;2023-12-14T03:18:44;2.38;;;1.60;;
25780;SDS011;13626;48.128;11.628;2023-12-14T03:21:14;2.03;;;1.85;;
25780;SDS011;13626;48.128;11.628;2023-12-14T03:23:48;2.15;;;1.88;;
25780;SDS011;13626;48.128;11.628;2023-12-14T03:26:21;1.98;;;1.77;;
25780;SDS011;13626;48.128;11.628;2023-12-14T03:29:05;1.90;;;1.80;;
25780;SDS011;13626;48.128;11.628;2023-12-14T03:31:38;2.00;;;1.80;;
25780;SDS011;13626;48.128;11.628;2023-12-14T03:34:22;2.50;;;2.30;;
25780;SDS011;13626;48.128;11.628;2023-12-14T03:36:53;2.58;;;2.38;;
25780;SDS011;13626;48.128;11.628;2023-12-14T03:39:34;2.67;;;2.20;;
25780;SDS011;13626;48.128;11.628;2023-12-14T03:45:08;1.80;;;1.70;;
25780;SDS011;13626;48.128;11.628;2023-12-14T03:47:48;1.92;;;1.80;;
25780;SDS011;13626;48.128;11.628;2023-12-14T03:50:21;2.33;;;1.90;;
25780;SDS011;13626;48.128;11.628;2023-12-14T03:52:52;1.95;;;1.85;;
25780;SDS011;13626;48.128;11.628;2023-12-14T03:55:25;2.17;;;1.88;;
25780;SDS011;13626;48.128;11.628;2023-12-14T03:58:01;1.70;;;1.60;;
25780;SDS011;13626;48.128;11.628;2023-12-14T04:00:34;2.25;;;1.70;;
25780;SDS011;13626;48.128;11.628;2023-12-14T04:03:14;2.08;;;1.65;;
25780;SDS011;13626;48.128;11.628;2023-12-14T04:08:40;2.00;;;1.80;;
25780;SDS011;13626;48.128;11.628;2023-12-14T04:11:10;2.15;;;1.95;;
25780;SDS011;13626;48.128;11.628;2023-12-14T04:13:42;1.90;;;1.80;;
25780;SDS011;13626;48.128;11.628;2023-12-14T04:16:13;2.40;;;1.60;;
25780;SDS011;13626;48.128;11.628;2023-12-14T04:18:46;2.05;;;1.48;;
25780;SDS011;13626;48.128;11.628;2023-12-14T04:21:23;1.73;;;1.63;;
25780;SDS011;13626;48.128;11.628;2023-12-14T04:23:59;1.58;;;1.48;;
25780;SDS011;13626;48.128;11.628;2023-12-14T04:26:29;1.75;;;1.60;;
25780;SDS011;13626;48.128;11.628;2023-12-14T04:29:05;1.70;;;1.55;;
25780;SDS011;13626;48.128;11.628;2023-12-14T04:31:44;1.52;;;1.38;;
25780;SDS011;13626;48.128;11.628;2023-12-14T04:34:11;2.30;;;2.10;;
25780;SDS011;13626;48.128;11.628;2023-12-14T04:36:51;2.00;;;1.77;;
25780;SDS011;13626;48.128;11.628;2023-12-14T04:39:19;2.17;;;1.80;;
25780;SDS011;13626;48.128;11.628;2023-12-14T04:41:49;2.08;;;1.90;;
25780;SDS011;13626;48.128;11.628;2023-12-14T04:44:22;1.70;;;1.60;;
25780;SDS011;13626;48.128;11.628;2023-12-14T04:46:54;2.33;;;1.75;;
25780;SDS011;13626;48.128;11.628;2023-12-14T04:49:31;1.90;;;1.60;;
25780;SDS011;13626;48.128;11.628;2023-12-14T04:52:06;2.58;;;1.58;;
25780;SDS011;13626;48.128;11.628;2023-12-14T04:54:45;2.22;;;1.55;;
25780;SDS011;13626;48.128;11.628;2023-12-14T04:57:20;1.40;;;1.30;;
25780;SDS011;13626;48.128;11.628;2023-12-14T04:59:50;1.33;;;1.23;;
25780;SDS011;13626;48.128;11.628;2023-12-14T05:02:21;1.40;;;1.30;;
25780;SDS011;13626;48.128;11.628;2023-12-14T05:04:55;1.40;;;1.30;;
25780;SDS011;13626;48.128;11.628;2023-12-14T05:07:25;2.90;;;1.27;;
25780;SDS011;13626;48.128;11.628;2023-12-14T05:09:55;1.85;;;1.40;;
25780;SDS011;13626;48.128;11.628;2023-12-14T05:12:28;0.98;;;0.98;;
25780;SDS011;13626;48.128;11.628;2023-12-14T05:15:02;1.48;;;1.30;;
25780;SDS011;13626;48.128;11.628;2023-12-14T05:17:37;1.73;;;1.10;;
25780;SDS011;13626;48.128;11.628;2023-12-14T05:20:22;1.73;;;1.02;;
25780;SDS011;13626;48.128;11.628;2023-12-14T05:23:01;2.65;;;1.05;;
25780;SDS011;13626;48.128;11.628;2023-12-14T05:25:45;1.73;;;1.30;;
25780;SDS011;13626;48.128;11.628;2023-12-14T05:28:16;2.78;;;1.08;;
25780;SDS011;13626;48.128;11.628;2023-12-14T05:30:48;1.30;;;1.05;;
25780;SDS011;13626;48.128;11.628;2023-12-14T05:33:18;0.80;;;0.75;;
25780;SDS011;13626;48.128;11.628;2023-12-14T05:35:49;1.20;;;1.00;;
25780;SDS011;13626;48.128;11.628;2023-12-14T05:38:18;2.25;;;1.00;;
25780;SDS011;13626;48.128;11.628;2023-12-14T05:43:23;1.10;;;1.00;;
25780;SDS011;13626;48.128;11.628;2023-12-14T05:45:51;1.83;;;1.08;;
25780;SDS011;13626;48.128;11.628;2023-12-14T05:48:18;1.42;;;1.33;;
25780;SDS011;13626;48.128;11.628;2023-12-14T05:50:45;1.10;;;1.00;;
25780;SDS011;13626;48.128;11.628;2023-12-14T05:53:15;1.08;;;0.93;;
25780;SDS011;13626;48.128;11.628;2023-12-14T05:55:43;3.05;;;1.50;;
25780;SDS011;13626;48.128;11.628;2023-12-14T05:58:10;2.72;;;1.38;;
25780;SDS011;13626;48.128;11.628;2023-12-14T06:00:38;2.92;;;1.83;;
25780;SDS011;13626;48.128;11.628;2023-12-14T06:03:06;2.35;;;1.60;;
25780;SDS011;13626;48.128;11.628;2023-12-14T06:05:38;2.15;;;1.63;;
25780;SDS011;13626;48.128;11.628;2023-12-14T06:08:08;3.63;;;1.90;;
25780;SDS011;13626;48.128;11.628;2023-12-14T06:10:36;2.67;;;2.08;;
25780;SDS011;13626;48.128;11.628;2023-12-14T06:13:05;3.05;;;1.80;;
25780;SDS011;13626;48.128;11.628;2023-12-14T06:15:36;2.42;;;2.00;;
25780;SDS011;13626;48.128;11.628;2023-12-14T06:18:07;2.92;;;2.25;;
25780;SDS011;13626;48.128;11.628;2023-12-14T06:20:44;3.42;;;2.83;;
25780;SDS011;13626;48.128;11.628;2023-12-14T06:23:14;3.58;;;2.20;;
25780;SDS011;13626;48.128;11.628;2023-12-14T06:25:42;5.55;;;2.50;;
25780;SDS011;13626;48.128;11.628;2023-12-14T06:28:09;4.82;;;2.40;;
25780;SDS011;13626;48.128;11.628;2023-12-14T06:30:39;2.85;;;2.20;;
25780;SDS011;13626;48.128;11.628;2023-12-14T06:33:06;4.35;;;2.60;;
25780;SDS011;13626;48.128;11.628;2023-12-14T06:35:34;2.63;;;2.15;;
25780;SDS011;13626;48.128;11.628;2023-12-14T06:38:10;5.30;;;2.65;;
25780;SDS011;13626;48.128;11.628;2023-12-14T06:40:39;5.28;;;2.60;;
25780;SDS011;13626;48.128;11.628;2023-12-14T06:43:09;2.50;;;2.17;;
25780;SDS011;13626;48.128;11.628;2023-12-14T06:45:37;4.18;;;2.42;;
25780;SDS011;13626;48.128;11.628;2023-12-14T06:48:06;4.25;;;2.70;;
25780;SDS011;13626;48.128;11.628;2023-12-14T06:50:38;3.55;;;2.38;;
25780;SDS011;13626;48.128;11.628;2023-12-14T06:53:14;4.40;;;2.75;;
25780;SDS011;13626;48.128;11.628;2023-12-14T06:55:53;3.40;;;2.63;;
25780;SDS011;13626;48.128;11.628;2023-12-14T06:58:27;4.72;;;2.65;;
25780;SDS011;13626;48.128;11.628;2023-12-14T07:01:02;5.63;;;2.60;;
25780;SDS011;13626;48.128;11.628;2023-12-14T07:03:33;4.15;;;3.05;;
25780;SDS011;13626;48.128;11.628;2023-12-14T07:06:06;4.35;;;2.40;;
25780;SDS011;13626;48.128;11.628;2023-12-14T07:08:36;4.55;;;3.20;;
25780;SDS011;13626;48.128;11.628;2023-12-14T07:11:18;3.28;;;2.30;;
25780;SDS011;13626;48.128;11.628;2023-12-14T07:13:58;3.83;;;2.38;;
25780;SDS011;13626;48.128;11.628;2023-12-14T07:17:19;3.80;;;2.78;;
25780;SDS011;13626;48.128;11.628;2023-12-14T07:20:05;3.90;;;2.65;;
25780;SDS011;13626;48.128;11.628;2023-12-14T07:22:53;5.07;;;3.03;;
25780;SDS011;13626;48.128;11.628;2023-12-14T07:25:34;3.88;;;2.95;;
25780;SDS011;13626;48.128;11.628;2023-12-14T07:28:10;3.67;;;2.70;;
25780;SDS011;13626;48.128;11.628;2023-12-14T07:30:58;4.25;;;2.83;;
25780;SDS011;13626;48.128;11.628;2023-12-14T07:33:34;5.93;;;3.10;;
25780;SDS011;13626;48.128;11.628;2023-12-14T07:39:13;7.63;;;3.78;;
25780;SDS011;13626;48.128;11.628;2023-12-14T07:42:17;6.05;;;4.38;;
25780;SDS011;13626;48.128;11.628;2023-12-14T07:45:05;7.90;;;4.03;;
25780;SDS011;13626;48.128;11.628;2023-12-14T07:51:53;7.18;;;4.50;;
25780;SDS011;13626;48.128;11.628;2023-12-14T07:54:33;8.80;;;4.43;;
25780;SDS011;13626;48.128;11.628;2023-12-14T07:57:26;9.18;;;4.68;;
25780;SDS011;13626;48.128;11.628;2023-12-14T08:00:07;8.90;;;4.60;;
25780;SDS011;13626;48.128;11.628;2023-12-14T08:02:50;7.50;;;5.00;;
25780;SDS011;13626;48.128;11.628;2023-12-14T08:05:39;10.95;;;5.05;;
25780;SDS011;13626;48.128;11.628;2023-12-14T08:08:15;6.72;;;4.47;;
25780;SDS011;13626;48.128;11.628;2023-12-14T08:10:56;8.00;;;4.60;;
25780;SDS011;13626;48.128;11.628;2023-12-14T08:13:42;7.55;;;4.63;;
25780;SDS011;13626;48.128;11.628;2023-12-14T08:16:34;7.78;;;4.65;;
25780;SDS011;13626;48.128;11.628;2023-12-14T08:19:41;8.55;;;4.43;;
25780;SDS011;13626;48.128;11.628;2023-12-14T08:22:25;6.50;;;4.40;;
25780;SDS011;13626;48.128;11.628;2023-12-14T08:25:04;7.45;;;4.35;;
25780;SDS011;13626;48.128;11.628;2023-12-14T08:27:38;6.20;;;4.65;;
25780;SDS011;13626;48.128;11.628;2023-12-14T08:30:41;10.00;;;4.43;;
25780;SDS011;13626;48.128;11.628;2023-12-14T08:36:06;7.40;;;4.70;;
25780;SDS011;13626;48.128;11.628;2023-12-14T08:38:48;6.47;;;4.53;;
25780;SDS011;13626;48.128;11.628;2023-12-14T08:41:43;8.05;;;4.60;;
25780;SDS011;13626;48.128;11.628;2023-12-14T08:44:17;8.02;;;4.53;;
25780;SDS011;13626;48.128;11.628;2023-12-14T08:46:59;7.13;;;4.90;;
25780;SDS011;13626;48.128;11.628;2023-12-14T08:49:37;7.95;;;4.50;;
25780;SDS011;13626;48.128;11.628;2023-12-14T08:52:14;8.35;;;5.38;;
25780;SDS011;13626;48.128;11.628;2023-12-14T08:55:05;7.95;;;4.50;;
25780;SDS011;13626;48.128;11.628;2023-12-14T08:57:43;7.18;;;4.57;;
25780;SDS011;13626;48.128;11.628;2023-12-14T09:00:15;7.97;;;4.70;;
25780;SDS011;13626;48.128;11.628;2023-12-14T09:02:49;8.52;;;4.43;;
25780;SDS011;13626;48.128;11.628;2023-12-14T09:05:25;7.82;;;4.97;;
25780;SDS011;13626;48.128;11.628;2023-12-14T09:07:56;5.80;;;4.05;;
25780;SDS011;13626;48.128;11.628;2023-12-14T09:10:28;5.82;;;4.10;;
25780;SDS011;13626;48.128;11.628;2023-12-14T09:12:58;4.60;;;3.58;;
25780;SDS011;13626;48.128;11.628;2023-12-14T09:15:37;4.07;;;3.20;;
25780;SDS011;13626;48.128;11.628;2023-12-14T09:18:09;5.55;;;3.30;;
25780;SDS011;13626;48.128;11.628;2023-12-14T09:20:53;5.43;;;3.42;;
25780;SDS011;13626;48.128;11.628;2023-12-14T09:23:26;5.20;;;3.35;;
25780;SDS011;13626;48.128;11.628;2023-12-14T09:26:17;5.40;;;3.90;;
25780;SDS011;13626;48.128;11.628;2023-12-14T09:28:59;4.20;;;3.28;;
25780;SDS011;13626;48.128;11.628;2023-12-14T09:31:35;5.07;;;3.33;;
25780;SDS011;13626;48.128;11.628;2023-12-14T09:34:26;4.95;;;3.10;;
25780;SDS011;13626;48.128;11.628;2023-12-14T09:37:03;6.30;;;3.97;;
25780;SDS011;13626;48.128;11.628;2023-12-14T09:39:37;6.20;;;3.75;;
25780;SDS011;13626;48.128;11.628;2023-12-14T09:42:29;5.13;;;3.58;;
25780;SDS011;13626;48.128;11.628;2023-12-14T09:45:09;6.40;;;3.15;;
25780;SDS011;13626;48.128;11.628;2023-12-14T09:47:55;4.32;;;3.33;;
25780;SDS011;13626;48.128;11.628;2023-12-14T09:50:38;4.03;;;3.03;;
25780;SDS011;13626;48.128;11.628;2023-12-14T09:53:34;5.05;;;3.28;;
25780;SDS011;13626;48.128;11.628;2023-12-14T09:56:25;3.63;;;2.75;;
25780;SDS011;13626;48.128;11.628;2023-12-14T10:01:36;4.93;;;2.80;;
25780;SDS011;13626;48.128;11.628;2023-12-14T10:04:42;4.80;;;3.38;;
25780;SDS011;13626;48.128;11.628;2023-12-14T10:10:51;5.63;;;3.45;;
25780;SDS011;13626;48.128;11.628;2023-12-14T10:13:36;4.20;;;2.83;;
25780;SDS011;13626;48.128;11.628;2023-12-14T10:16:10;3.78;;;2.95;;
25780;SDS011;13626;48.128;11.628;2023-12-14T10:18:56;4.80;;;3.22;;
25780;SDS011;13626;48.128;11.628;2023-12-14T10:21:45;3.13;;;2.70;;
25780;SDS011;13626;48.128;11.628;2023-12-14T10:24:23;4.15;;;2.60;;
25780;SDS011;13626;48.128;11.628;2023-12-14T10:27:17;3.95;;;2.83;;
25780;SDS011;13626;48.128;11.628;2023-12-14T10:33:11;4.00;;;2.30;;
25780;SDS011;13626;48.128;11.628;2023-12-14T10:35:48;4.68;;;2.30;;
25780;SDS011;13626;48.128;11.628;2023-12-14T10:38:25;3.03;;;2.20;;
25780;SDS011;13626;48.128;11.628;2023-12-14T10:41:13;3.45;;;2.15;;
25780;SDS011;13626;48.128;11.628;2023-12-14T10:43:56;5.25;;;2.45;;
25780;SDS011;13626;48.128;11.628;2023-12-14T10:46:57;2.58;;;2.17;;
25780;SDS011;13626;48.128;11.628;2023-12-14T10:49:37;3.38;;;2.03;;
25780;SDS011;13626;48.128;11.628;2023-12-14T10:52:21;7.00;;;2.38;;
25780;SDS011;13626;48.128;11.628;2023-12-14T10:55:02;4.78;;;2.60;;
25780;SDS011;13626;48.128;11.628;2023-12-14T10:57:34;3.83;;;2.13;;
25780;SDS011;13626;48.128;11.628;2023-12-14T11:00:21;3.03;;;2.08;;
25780;SDS011;13626;48.128;11.628;2023-12-14T11:03:03;6.13;;;2.85;;
25780;SDS011;13626;48.128;11.628;2023-12-14T11:05:54;4.72;;;2.83;;
25780;SDS011;13626;48.128;11.628;2023-12-14T11:08:38;12.27;;;3.20;;
25780;SDS011;13626;48.128;11.628;2023-12-14T11:11:14;2.95;;;2.42;;
25780;SDS011;13626;48.128;11.628;2023-12-14T11:13:50;2.80;;;2.53;;
25780;SDS011;13626;48.128;11.628;2023-12-14T11:16:22;4.07;;;2.38;;
25780;SDS011;13626;48.128;11.628;2023-12-14T11:19:05;3.78;;;2.10;;
25780;SDS011;13626;48.128;11.628;2023-12-14T11:21:36;4.38;;;2.40;;
25780;SDS011;13626;48.128;11.628;2023-12-14T11:24:04;5.95;;;2.47;;
25780;SDS011;13626;48.128;11.628;2023-12-14T11:26:31;4.60;;;2.70;;
25780;SDS011;13626;48.128;11.628;2023-12-14T11:28:59;2.80;;;2.50;;
25780;SDS011;13626;48.128;11.628;2023-12-14T11:31:27;4.28;;;2.60;;
25780;SDS011;13626;48.128;11.628;2023-12-14T11:33:55;3.22;;;2.30;;
25780;SDS011;13626;48.128;11.628;2023-12-14T11:36:23;2.65;;;2.40;;
25780;SDS011;13626;48.128;11.628;2023-12-14T11:38:52;4.30;;;2.78;;
25780;SDS011;13626;48.128;11.628;2023-12-14T11:41:21;3.22;;;2.70;;
25780;SDS011;13626;48.128;11.628;2023-12-14T11:43:51;3.75;;;2.70;;
25780;SDS011;13626;48.128;11.628;2023-12-14T11:46:19;2.47;;;2.15;;
25780;SDS011;13626;48.128;11.628;2023-12-14T11:48:46;3.63;;;2.22;;
25780;SDS011;13626;48.128;11.628;2023-12-14T11:51:15;2.85;;;2.10;;
25780;SDS011;13626;48.128;11.628;2023-12-14T11:53:46;3.50;;;2.00;;
25780;SDS011;13626;48.128;11.628;2023-12-14T11:56:14;2.25;;;2.03;;
25780;SDS011;13626;48.128;11.628;2023-12-14T11:58:45;2.42;;;2.22;;
25780;SDS011;13626;48.128;11.628;2023-12-14T12:01:14;4.07;;;2.28;;
25780;SDS011;13626;48.128;11.628;2023-12-14T12:06:47;3.15;;;2.05;;
25780;SDS011;13626;48.128;11.628;2023-12-14T12:09:31;2.38;;;1.90;;
25780;SDS011;13626;48.128;11.628;2023-12-14T12:12:05;2.13;;;1.70;;
25780;SDS011;13626;48.128;11.628;2023-12-14T12:14:50;2.58;;;1.60;;
25780;SDS011;13626;48.128;11.628;2023-12-14T12:17:38;1.98;;;1.40;;
25780;SDS011;13626;48.128;11.628;2023-12-14T12:20:20;4.38;;;1.67;;
25780;SDS011;13626;48.128;11.628;2023-12-14T12:22:53;2.85;;;1.38;;
25780;SDS011;13626;48.128;11.628;2023-12-14T12:25:32;1.70;;;1.60;;
25780;SDS011;13626;48.128;11.628;2023-12-14T12:28:11;1.65;;;1.52;;
25780;SDS011;13626;48.128;11.628;2023-12-14T12:30:52;2.08;;;1.70;;
25780;SDS011;13626;48.128;11.628;2023-12-14T12:33:30;2.00;;;1.55;;
25780;SDS011;13626;48.128;11.628;2023-12-14T12:36:06;2.88;;;1.83;;
25780;SDS011;13626;48.128;11.628;2023-12-14T12:38:42;2.45;;;2.00;;
25780;SDS011;13626;48.128;11.628;2023-12-14T12:41:19;3.47;;;1.98;;
25780;SDS011;13626;48.128;11.628;2023-12-14T12:44:10;3.67;;;2.05;;
25780;SDS011;13626;48.128;11.628;2023-12-14T12:46:51;2.88;;;1.67;;
25780;SDS011;13626;48.128;11.628;2023-12-14T12:49:39;3.33;;;1.90;;
25780;SDS011;13626;48.128;11.628;2023-12-14T12:52:24;2.70;;;1.60;;
25780;SDS011;13626;48.128;11.628;2023-12-14T12:54:55;2.50;;;1.45;;
25780;SDS011;13626;48.128;11.628;2023-12-14T12:57:25;4.72;;;1.90;;
25780;SDS011;13626;48.128;11.628;2023-12-14T13:00:09;3.33;;;1.50;;
25780;SDS011;13626;48.128;11.628;2023-12-14T13:02:40;2.00;;;1.80;;
25780;SDS011;13626;48.128;11.628;2023-12-14T13:05:12;1.73;;;1.48;;
25780;SDS011;13626;48.128;11.628;2023-12-14T13:07:44;2.45;;;1.50;;
25780;SDS011;13626;48.128;11.628;2023-12-14T13:10:12;3.63;;;2.17;;
25780;SDS011;13626;48.128;11.628;2023-12-14T13:12:56;3.90;;;1.67;;
25780;SDS011;13626;48.128;11.628;2023-12-14T13:15:23;3.50;;;1.70;;
25780;SDS011;13626;48.128;11.628;2023-12-14T13:17:52;4.85;;;1.75;;
25780;SDS011;13626;48.128;11.628;2023-12-14T13:20:22;3.33;;;1.50;;
25780;SDS011;13626;48.128;11.628;2023-12-14T13:22:49;2.83;;;1.70;;
25780;SDS011;13626;48.128;11.628;2023-12-14T13:25:17;1.63;;;1.40;;
25780;SDS011;13626;48.128;11.628;2023-12-14T13:27:45;1.92;;;1.60;;
25780;SDS011;13626;48.128;11.628;2023-12-14T13:30:12;2.55;;;1.80;;
25780;SDS011;13626;48.128;11.628;2023-12-14T13:32:44;1.75;;;1.40;;
25780;SDS011;13626;48.128;11.628;2023-12-14T13:35:13;2.38;;;1.90;;
25780;SDS011;13626;48.128;11.628;2023-12-14T13:37:59;1.75;;;1.60;;
25780;SDS011;13626;48.128;11.628;2023-12-14T13:40:27;2.38;;;1.60;;
25780;SDS011;13626;48.128;11.628;2023-12-14T13:42:57;2.20;;;1.65;;
25780;SDS011;13626;48.128;11.628;2023-12-14T13:45:37;2.63;;;1.70;;
25780;SDS011;13626;48.128;11.628;2023-12-14T13:48:05;2.80;;;2.00;;
25780;SDS011;13626;48.128;11.628;2023-12-14T13:50:37;2.55;;;1.58;;
25780;SDS011;13626;48.128;11.628;2023-12-14T13:53:18;3.63;;;1.77;;
25780;SDS011;13626;48.128;11.628;2023-12-14T13:56:01;2.35;;;1.83;;
25780;SDS011;13626;48.128;11.628;2023-12-14T13:58:42;3.17;;;1.55;;
25780;SDS011;13626;48.128;11.628;2023-12-14T14:01:14;3.00;;;1.63;;
25780;SDS011;13626;48.128;11.628;2023-12-14T14:03:42;1.63;;;1.45;;
25780;SDS011;13626;48.128;11.628;2023-12-14T14:06:10;3.50;;;2.08;;
25780;SDS011;13626;48.128;11.628;2023-12-14T14:08:38;3.88;;;1.80;;
25780;SDS011;13626;48.128;11.628;2023-12-14T14:11:05;2.08;;;1.77;;
25780;SDS011;13626;48.128;11.628;2023-12-14T14:13:36;3.03;;;2.00;;
25780;SDS011;13626;48.128;11.628;2023-12-14T14:16:03;3.95;;;1.77;;
25780;SDS011;13626;48.128;11.628;2023-12-14T14:18:31;3.53;;;2.13;;
25780;SDS011;13626;48.128;11.628;2023-12-14T14:20:59;3.22;;;1.85;;
25780;SDS011;13626;48.128;11.628;2023-12-14T14:23:27;3.22;;;1.90;;
25780;SDS011;13626;48.128;11.628;2023-12-14T14:25:57;3.95;;;2.20;;
25780;SDS011;13626;48.128;11.628;2023-12-14T14:28:25;3.17;;;1.90;;
25780;SDS011;13626;48.128;11.628;2023-12-14T14:30:52;3.38;;;2.38;;
25780;SDS011;13626;48.128;11.628;2023-12-14T14:33:20;9.73;;;2.88;;
25780;SDS011;13626;48.128;11.628;2023-12-14T14:35:48;3.17;;;1.80;;
25780;SDS011;13626;48.128;11.628;2023-12-14T14:38:18;3.75;;;2.00;;
25780;SDS011;13626;48.128;11.628;2023-12-14T14:40:50;2.53;;;1.85;;
25780;SDS011;13626;48.128;11.628;2023-12-14T14:43:18;3.38;;;2.20;;
25780;SDS011;13626;48.128;11.628;2023-12-14T14:45:58;4.10;;;1.88;;
25780;SDS011;13626;48.128;11.628;2023-12-14T14:48:28;2.50;;;1.95;;
25780;SDS011;13626;48.128;11.628;2023-12-14T14:50:56;3.60;;;2.20;;
25780;SDS011;13626;48.128;11.628;2023-12-14T14:53:24;3.20;;;2.00;;
25780;SDS011;13626;48.128;11.628;2023-12-14T14:55:52;4.75;;;2.35;;
25780;SDS011;13626;48.128;11.628;2023-12-14T14:58:22;2.70;;;2.08;;
25780;SDS011;13626;48.128;11.628;2023-12-14T15:00:58;5.25;;;3.85;;
25780;SDS011;13626;48.128;11.628;2023-12-14T15:03:46;3.42;;;2.22;;
25780;SDS011;13626;48.128;11.628;2023-12-14T15:06:23;2.97;;;2.28;;
25780;SDS011;13626;48.128;11.628;2023-12-14T15:09:05;2.35;;;2.00;;
25780;SDS011;13626;48.128;11.628;2023-12-14T15:11:43;4.60;;;2.10;;
25780;SDS011;13626;48.128;11.628;2023-12-14T15:14:17;3.50;;;2.23;;
25780;SDS011;13626;48.128;11.628;2023-12-14T15:16:46;3.97;;;2.20;;
25780;SDS011;13626;48.128;11.628;2023-12-14T15:19:17;5.28;;;2.40;;
25780;SDS011;13626;48.128;11.628;2023-12-14T15:21:52;4.93;;;2.55;;
25780;SDS011;13626;48.128;11.628;2023-12-14T15:24:19;5.28;;;2.20;;
25780;SDS011;13626;48.128;11.628;2023-12-14T15:26:46;2.53;;;1.95;;
25780;SDS011;13626;48.128;11.628;2023-12-14T15:29:15;4.32;;;2.45;;
25780;SDS011;13626;48.128;11.628;2023-12-14T15:31:43;3.72;;;2.40;;
25780;SDS011;13626;48.128;11.628;2023-12-14T15:34:12;5.20;;;2.58;;
25780;SDS011;13626;48.128;11.628;2023-12-14T15:36:40;4.43;;;2.45;;
25780;SDS011;13626;48.128;11.628;2023-12-14T15:39:07;4.13;;;2.67;;
25780;SDS011;13626;48.128;11.628;2023-12-14T15:41:35;3.70;;;2.63;;
25780;SDS011;13626;48.128;11.628;2023-12-14T15:44:02;3.83;;;2.60;;
25780;SDS011;13626;48.128;11.628;2023-12-14T15:46:29;7.20;;;2.75;;
25780;SDS011;13626;48.128;11.628;2023-12-14T15:48:59;3.70;;;2.90;;
25780;SDS011;13626;48.128;11.628;2023-12-14T15:51:30;4.22;;;2.58;;
25780;SDS011;13626;48.128;11.628;2023-12-14T15:54:02;6.57;;;2.60;;